Nigde, Turkey

5:41 PM EEST on October 02, 2014 (GMT +0300)
Kapadokya | Change Station
CLOSE
Current Station
Airport
Location: NEVSEHIR,
Elevation: 3100 ft
Nearby Weather Stations

Elev 3100 ft 38.77 °N, 34.53 °E | Updated 21 minutes ago

Clear
Clear
68 °F
Feels Like 68 °F
N
14
Wind Variable Wind from North

Today
High -- | Low -- °F
--% Chance of Precip.
Yesterday
High -- | Low -- °F
Precip. -- in
6:37 AM 6:23 PM
First Quarter, 59% visible
Pressure 30.15 in
Visibility -9999.0 miles
Clouds
Dew Point 27 °F
Humidity 21%
Rainfall 0.00 in
Snow Depth Not available.
UV Not available.
Pollen Not available.
Air Quality Not available.
Flu Activity Not available.
METAR LTAZ 021420Z 01012KT CAVOK 20/M03 Q1021 RMK RWY29 35014KT 320V030

More Conditions Fewer Conditions

Pressure 30.15 in
Visibility -9999.0 miles
Clouds
Dew Point 27 °F
Humidity 21%
Rainfall 0.00 in
Snow Depth Not available.
UV Not available.
Pollen Not available.
Air Quality Not available.
Flu Activity Not available.
METAR LTAZ 021420Z 01012KT CAVOK 20/M03 Q1021 RMK RWY29 35014KT 320V030

More Conditions Fewer Conditions

10-Day Weather Forecast

Almanac

Astronomy

Oct. 02, 2014 Rise Set
Actual Time 6:37 AM EEST 6:23 PM EEST
Civil Twilight 6:11 AM EEST 6:49 PM EEST
Nautical Twilight 5:40 AM EEST 7:19 PM EEST
Astronomical Twilight 5:10 AM EEST 7:50 PM EEST
Moon 2:07 PM EEST No Moon Set
Length of Visible Light 12h 38m
Length of Day
11h 45m
Tomorrow will be 2m 26s shorter.
First Quarter, 59% of the Moon is Illuminated
Today
First Quarter
Oct 8
Full
Oct 15
Last Quarter
Oct 23
New
Oct 30
First Quarter

Today's Extremes

Country Highs Country Lows

Community

WunderPhotos

Upload Photos

1,758,257 photos uploaded!

WunderBlogs® & News

By Dr. Jeff Masters
Director of Meteorology, Weather Underground
By Kari Strenfel
Meteorologist, Weather Underground
By Christopher C. Burt
Weather Historian, Weather Underground
October 2, 2014
October 2, 2014
October 2, 2014

Nearby

Snow Depth

Not available.

Earthquake Activity

City Distance Mag. Time & Date
No recent earthquake activity has been reported nearby.
Minimum magnitude displayed is 2.5.

Coastal Water Temperatures

Place Temperature
No Stations Reporting

Nearby Weather Stations